createdAt,value
2022-08-27T00:02:02.706Z,10.40
2022-08-27T00:04:32.399Z,3.37
2022-08-27T00:07:00.551Z,3.90
2022-08-27T00:09:29.868Z,3.20
2022-08-27T00:11:58.438Z,4.00
2022-08-27T00:14:28.281Z,4.10
2022-08-27T00:16:57.211Z,6.40
2022-08-27T00:19:25.429Z,6.40
2022-08-27T00:21:55.680Z,2.93
2022-08-27T00:24:23.906Z,3.30
2022-08-27T00:26:53.375Z,3.27
2022-08-27T00:29:21.975Z,5.50
2022-08-27T00:31:53.416Z,7.50
2022-08-27T00:34:23.227Z,3.20
2022-08-27T00:36:51.256Z,3.37
2022-08-27T00:39:21.293Z,4.57
2022-08-27T00:41:49.403Z,3.27
2022-08-27T00:44:17.778Z,7.13
2022-08-27T00:46:48.915Z,5.27
2022-08-27T00:49:20.845Z,4.73
2022-08-27T00:51:54.702Z,5.83
2022-08-27T00:54:24.501Z,5.10
2022-08-27T00:56:54.404Z,4.60
2022-08-27T00:59:25.595Z,6.57
2022-08-27T01:02:11.153Z,5.03
2022-08-27T01:04:41.510Z,3.67
2022-08-27T01:07:11.001Z,4.07
2022-08-27T01:09:40.738Z,3.50
2022-08-27T01:12:09.790Z,4.63
2022-08-27T01:14:38.294Z,5.47
2022-08-27T01:17:09.197Z,3.77
2022-08-27T01:19:42.337Z,4.30
2022-08-27T01:22:19.921Z,5.27
2022-08-27T01:24:55.910Z,13.30
2022-08-27T01:27:27.895Z,3.50
2022-08-27T01:29:56.358Z,3.63
2022-08-27T01:32:28.073Z,5.10
2022-08-27T01:34:56.899Z,3.67
2022-08-27T01:37:27.051Z,5.30
2022-08-27T01:39:59.119Z,9.87
2022-08-27T01:42:31.910Z,4.40
2022-08-27T01:45:05.662Z,6.57
2022-08-27T01:47:34.782Z,2.80
2022-08-27T01:50:03.870Z,4.53
2022-08-27T01:52:32.640Z,6.87
2022-08-27T01:55:01.983Z,4.43
2022-08-27T01:57:30.109Z,6.47
2022-08-27T02:00:02.368Z,2.23
2022-08-27T02:02:40.706Z,3.57
2022-08-27T02:05:09.810Z,3.10
2022-08-27T02:07:37.919Z,3.17
2022-08-27T02:10:10.182Z,5.30
2022-08-27T02:12:38.374Z,2.93
2022-08-27T02:15:07.810Z,2.63
2022-08-27T02:17:35.994Z,3.20
2022-08-27T02:20:04.853Z,3.87
2022-08-27T02:22:32.934Z,4.90
2022-08-27T02:25:01.017Z,8.10
2022-08-27T02:27:30.477Z,8.30
2022-08-27T02:29:58.465Z,5.70
2022-08-27T02:32:32.432Z,2.90
2022-08-27T02:35:00.979Z,3.43
2022-08-27T02:37:29.879Z,4.13
2022-08-27T02:39:58.396Z,5.10
2022-08-27T02:42:26.582Z,7.63
2022-08-27T02:44:55.975Z,4.87
2022-08-27T02:47:24.018Z,5.50
2022-08-27T02:49:52.307Z,8.33
2022-08-27T02:52:24.784Z,12.70
2022-08-27T02:54:53.445Z,10.47
2022-08-27T02:57:22.427Z,8.03
2022-08-27T02:59:50.507Z,4.20
2022-08-27T03:02:20.545Z,7.63
2022-08-27T03:04:49.511Z,5.63
2022-08-27T03:07:19.690Z,4.17
2022-08-27T03:09:47.725Z,4.60
2022-08-27T03:12:15.939Z,4.50
2022-08-27T03:14:44.601Z,5.50
2022-08-27T03:17:30.778Z,5.10
2022-08-27T03:20:01.518Z,8.27
2022-08-27T03:22:29.610Z,3.20
2022-08-27T03:24:57.658Z,5.40
2022-08-27T03:27:25.750Z,3.47
2022-08-27T03:29:54.138Z,4.87
2022-08-27T03:32:22.198Z,9.70
2022-08-27T03:34:50.218Z,5.90
2022-08-27T03:37:19.589Z,4.10
2022-08-27T03:39:47.614Z,3.30
2022-08-27T03:42:15.682Z,5.87
2022-08-27T03:44:43.770Z,4.77
2022-08-27T03:47:11.806Z,3.07
2022-08-27T03:49:39.992Z,4.07
2022-08-27T03:52:09.484Z,9.17
2022-08-27T03:54:39.815Z,10.10
2022-08-27T03:57:08.498Z,4.03
2022-08-27T03:59:36.527Z,4.73
2022-08-27T04:02:05.059Z,5.23
2022-08-27T04:04:33.656Z,4.23
2022-08-27T04:07:01.746Z,3.63
2022-08-27T04:09:29.801Z,7.90
2022-08-27T04:11:59.219Z,6.33
2022-08-27T04:14:27.729Z,4.43
2022-08-27T04:16:56.876Z,5.53
2022-08-27T04:19:28.382Z,9.13
2022-08-27T04:22:01.589Z,5.57
2022-08-27T04:24:31.579Z,5.07
2022-08-27T04:27:01.922Z,7.70
2022-08-27T04:29:30.258Z,7.87
2022-08-27T04:31:59.038Z,7.03
2022-08-27T04:34:27.160Z,11.40
2022-08-27T04:36:57.141Z,9.13
2022-08-27T04:39:26.873Z,11.80
2022-08-27T04:41:56.965Z,9.43
2022-08-27T04:44:31.092Z,10.60
2022-08-27T04:47:00.713Z,6.77
2022-08-27T04:49:29.490Z,7.93
2022-08-27T04:51:59.272Z,12.90
2022-08-27T04:54:32.779Z,12.03
2022-08-27T04:57:01.634Z,13.90
2022-08-27T04:59:31.320Z,17.33
2022-08-27T05:01:59.777Z,22.13
2022-08-27T05:04:29.038Z,17.73
2022-08-27T05:06:57.309Z,22.77
2022-08-27T05:09:26.947Z,18.87
2022-08-27T05:11:56.183Z,22.60
2022-08-27T05:14:29.827Z,21.70
2022-08-27T05:16:59.918Z,18.67
2022-08-27T05:19:28.502Z,26.80
2022-08-27T05:21:56.949Z,19.10
2022-08-27T05:24:25.045Z,24.07
2022-08-27T05:26:53.234Z,17.17
2022-08-27T05:29:22.143Z,22.87
2022-08-27T05:31:50.515Z,18.53
2022-08-27T05:34:22.002Z,20.10
2022-08-27T05:36:53.474Z,23.10
2022-08-27T05:39:21.555Z,18.03
2022-08-27T05:41:49.722Z,25.67
2022-08-27T05:44:39.997Z,27.17
2022-08-27T05:47:06.398Z,25.70
2022-08-27T05:49:35.808Z,28.73
2022-08-27T05:52:04.821Z,26.43
2022-08-27T05:54:32.881Z,28.40
2022-08-27T05:57:00.909Z,27.57
2022-08-27T05:59:46.354Z,23.33
2022-08-27T06:02:14.464Z,32.93
2022-08-27T06:04:43.927Z,30.40
2022-08-27T06:07:11.995Z,23.23
2022-08-27T06:09:40.986Z,30.27
2022-08-27T06:12:09.833Z,26.83
2022-08-27T06:14:38.428Z,26.53
2022-08-27T06:17:07.250Z,31.67
2022-08-27T06:19:36.363Z,27.77
2022-08-27T06:22:10.049Z,31.90
2022-08-27T06:24:40.324Z,39.87
2022-08-27T06:27:11.416Z,33.80
2022-08-27T06:29:39.698Z,34.03
2022-08-27T06:32:09.086Z,39.80
2022-08-27T06:34:38.017Z,34.00
2022-08-27T06:37:08.115Z,33.70
2022-08-27T06:39:37.462Z,38.63
2022-08-27T06:42:06.242Z,39.87
2022-08-27T06:44:34.726Z,43.27
2022-08-27T06:47:04.335Z,36.63
2022-08-27T06:49:33.651Z,35.00
2022-08-27T06:52:02.114Z,38.90
2022-08-27T06:54:32.183Z,33.40
2022-08-27T06:57:00.805Z,34.87
2022-08-27T06:59:29.065Z,38.00
2022-08-27T07:01:57.338Z,33.10
2022-08-27T07:04:32.782Z,36.27
2022-08-27T07:07:02.750Z,38.43
2022-08-27T07:09:32.893Z,33.37
2022-08-27T07:12:01.327Z,33.13
2022-08-27T07:14:32.931Z,36.73
2022-08-27T07:17:05.783Z,35.93
2022-08-27T07:19:40.713Z,33.60
2022-08-27T07:22:10.772Z,37.43
2022-08-27T07:24:40.241Z,34.20
2022-08-27T07:27:08.807Z,33.03
2022-08-27T07:29:37.142Z,38.73
2022-08-27T07:32:05.439Z,34.60
2022-08-27T07:34:33.537Z,35.27
2022-08-27T07:37:01.632Z,38.83
2022-08-27T07:39:29.719Z,33.00
2022-08-27T07:42:16.198Z,35.30
2022-08-27T07:44:44.379Z,31.30
2022-08-27T07:47:13.554Z,31.97
2022-08-27T07:49:41.760Z,36.00
2022-08-27T07:52:09.806Z,34.70
2022-08-27T07:54:37.975Z,31.50
2022-08-27T07:57:07.483Z,33.63
2022-08-27T07:59:36.579Z,29.80
2022-08-27T08:02:04.997Z,32.53
2022-08-27T08:04:33.059Z,27.10
2022-08-27T08:07:01.371Z,34.00
2022-08-27T08:09:30.611Z,23.77
2022-08-27T08:11:59.132Z,27.97
2022-08-27T08:14:28.908Z,29.70
2022-08-27T08:17:01.241Z,26.30
2022-08-27T08:19:29.687Z,26.73
2022-08-27T08:22:05.004Z,25.37
2022-08-27T08:24:34.461Z,23.90
2022-08-27T08:27:06.838Z,22.87
2022-08-27T08:29:37.510Z,21.07
2022-08-27T08:32:06.297Z,23.43
2022-08-27T08:34:35.593Z,26.90
2022-08-27T08:37:04.961Z,30.13
2022-08-27T08:39:33.071Z,24.53
2022-08-27T08:42:04.071Z,26.10
2022-08-27T08:44:35.556Z,24.37
2022-08-27T08:47:10.388Z,19.93
2022-08-27T08:49:45.410Z,22.87
2022-08-27T08:52:31.255Z,20.60
2022-08-27T08:55:10.139Z,22.87
2022-08-27T08:57:43.295Z,19.53
2022-08-27T09:00:14.197Z,20.30
2022-08-27T09:02:52.241Z,21.77
2022-08-27T09:05:20.665Z,21.07
2022-08-27T09:08:28.586Z,23.10
2022-08-27T09:10:58.222Z,22.63
2022-08-27T09:13:30.591Z,18.53
2022-08-27T09:16:04.397Z,23.83
2022-08-27T09:18:37.008Z,22.40
2022-08-27T09:21:14.301Z,27.17
2022-08-27T09:24:02.104Z,26.87
2022-08-27T09:26:32.238Z,24.67
2022-08-27T09:29:19.772Z,24.83
2022-08-27T09:31:55.476Z,18.17
2022-08-27T09:34:27.132Z,27.87
2022-08-27T09:37:05.506Z,22.80
2022-08-27T09:39:36.989Z,20.40
2022-08-27T09:42:05.989Z,19.77
2022-08-27T09:44:34.478Z,25.40
2022-08-27T09:47:04.682Z,20.80
2022-08-27T09:49:36.766Z,22.40
2022-08-27T09:52:05.103Z,23.70
2022-08-27T09:54:41.843Z,24.90
2022-08-27T09:57:11.705Z,20.97
2022-08-27T09:59:44.268Z,23.23
2022-08-27T10:02:17.544Z,19.73
2022-08-27T10:04:50.627Z,22.47
2022-08-27T10:07:32.323Z,20.00
2022-08-27T10:10:05.098Z,17.50
2022-08-27T10:12:40.134Z,20.70
2022-08-27T10:15:10.277Z,17.10
2022-08-27T10:17:48.140Z,23.30
2022-08-27T10:20:30.531Z,16.57
2022-08-27T10:23:11.472Z,21.40
2022-08-27T10:25:47.662Z,18.73
2022-08-27T10:28:26.650Z,19.73
2022-08-27T10:31:09.171Z,15.27
2022-08-27T10:33:45.670Z,19.50
2022-08-27T10:36:26.966Z,15.93
2022-08-27T10:39:03.794Z,17.97
2022-08-27T10:41:36.281Z,29.60
2022-08-27T10:44:31.616Z,15.70
2022-08-27T10:47:24.948Z,14.57
2022-08-27T10:50:01.537Z,17.80
2022-08-27T10:52:38.773Z,11.77
2022-08-27T10:55:13.522Z,16.17
2022-08-27T10:58:01.054Z,15.00
2022-08-27T11:00:35.547Z,13.87
2022-08-27T11:03:08.379Z,12.37
2022-08-27T11:05:44.659Z,14.73
2022-08-27T11:08:20.254Z,10.83
2022-08-27T11:10:51.222Z,11.43
2022-08-27T11:13:27.262Z,9.57
2022-08-27T11:15:57.534Z,9.60
2022-08-27T11:18:41.314Z,9.60
2022-08-27T11:21:17.573Z,9.50
2022-08-27T11:23:50.841Z,6.90
2022-08-27T11:26:18.922Z,11.60
2022-08-27T11:28:50.075Z,10.13
2022-08-27T11:31:22.547Z,9.20
2022-08-27T11:33:58.779Z,11.00
2022-08-27T11:36:47.672Z,8.50
2022-08-27T11:39:40.936Z,11.20
2022-08-27T11:42:14.875Z,7.23
2022-08-27T11:44:46.594Z,8.90
2022-08-27T11:47:20.502Z,9.50
2022-08-27T11:49:51.976Z,9.03
2022-08-27T11:52:29.163Z,6.80
2022-08-27T11:55:14.525Z,9.30
2022-08-27T11:57:43.255Z,7.30
2022-08-27T12:00:20.998Z,11.13
2022-08-27T12:02:59.589Z,7.97
2022-08-27T12:05:37.453Z,11.33
2022-08-27T12:08:21.144Z,7.57
2022-08-27T12:11:05.552Z,7.50
2022-08-27T12:13:39.429Z,7.93
2022-08-27T12:16:17.359Z,9.57
2022-08-27T12:18:56.298Z,10.60
2022-08-27T12:21:36.297Z,8.73
2022-08-27T12:24:30.687Z,10.43
2022-08-27T12:27:02.740Z,11.53
2022-08-27T12:29:42.298Z,9.40
2022-08-27T12:32:26.078Z,11.67
2022-08-27T12:34:59.998Z,11.17
2022-08-27T12:37:30.657Z,9.40
2022-08-27T12:40:01.833Z,11.30
2022-08-27T12:42:31.351Z,10.30
2022-08-27T12:45:00.679Z,13.63
2022-08-27T12:47:29.642Z,8.90
2022-08-27T12:50:00.423Z,11.23
2022-08-27T12:52:52.458Z,13.27
2022-08-27T12:55:33.342Z,14.17
2022-08-27T12:58:15.441Z,22.37
2022-08-27T13:01:05.692Z,10.70
2022-08-27T13:03:36.525Z,12.70
2022-08-27T13:06:16.745Z,12.60
2022-08-27T13:08:45.115Z,11.53
2022-08-27T13:11:21.661Z,11.00
2022-08-27T13:13:52.122Z,10.13
2022-08-27T13:16:21.853Z,12.40
2022-08-27T13:18:51.243Z,12.03
2022-08-27T13:21:23.885Z,14.37
2022-08-27T13:23:57.443Z,11.53
2022-08-27T13:26:29.367Z,10.93
2022-08-27T13:29:03.316Z,11.57
2022-08-27T13:31:34.228Z,8.93
2022-08-27T13:34:06.513Z,11.07
2022-08-27T13:36:50.538Z,11.23
2022-08-27T13:39:19.159Z,9.87
2022-08-27T13:41:49.830Z,10.10
2022-08-27T13:44:24.587Z,12.70
2022-08-27T13:46:58.989Z,10.30
2022-08-27T13:49:29.592Z,11.30
2022-08-27T13:52:03.973Z,9.07
2022-08-27T13:54:33.357Z,11.33
2022-08-27T13:57:08.356Z,14.73
2022-08-27T13:59:43.318Z,10.27
2022-08-27T14:02:25.301Z,14.00
2022-08-27T14:05:07.583Z,14.57
2022-08-27T14:07:38.603Z,12.60
2022-08-27T14:10:09.418Z,16.70
2022-08-27T14:12:41.513Z,12.50
2022-08-27T14:15:21.050Z,12.83
2022-08-27T14:17:49.871Z,11.60
2022-08-27T14:20:20.359Z,11.40
2022-08-27T14:22:48.458Z,11.20
2022-08-27T14:25:17.730Z,12.27
2022-08-27T14:27:53.918Z,20.37
2022-08-27T14:30:29.344Z,9.70
2022-08-27T14:33:00.133Z,12.60
2022-08-27T14:35:29.309Z,12.33
2022-08-27T14:37:58.046Z,12.30
2022-08-27T14:40:26.138Z,12.77
2022-08-27T14:42:54.510Z,11.63
2022-08-27T14:45:24.427Z,12.53
2022-08-27T14:47:52.859Z,12.07
2022-08-27T14:50:30.345Z,13.97
2022-08-27T14:52:58.456Z,15.40
2022-08-27T14:55:26.567Z,8.43
2022-08-27T14:57:54.669Z,13.77
2022-08-27T15:00:24.425Z,12.43
2022-08-27T15:02:53.885Z,11.23
2022-08-27T15:05:23.462Z,13.67
2022-08-27T15:07:56.153Z,9.80
2022-08-27T15:10:26.204Z,10.07
2022-08-27T15:12:54.814Z,11.23
2022-08-27T15:15:24.255Z,11.17
2022-08-27T15:17:52.371Z,11.87
2022-08-27T15:20:20.664Z,8.40
2022-08-27T15:22:51.807Z,12.00
2022-08-27T15:25:21.395Z,12.27
2022-08-27T15:27:49.545Z,9.27
2022-08-27T15:30:18.962Z,10.63
2022-08-27T15:32:49.701Z,11.17
2022-08-27T15:35:20.430Z,7.73
2022-08-27T15:37:48.569Z,8.57
2022-08-27T15:40:18.612Z,8.70
2022-08-27T15:42:47.773Z,8.40
2022-08-27T15:45:16.131Z,14.90
2022-08-27T15:47:44.248Z,9.50
2022-08-27T15:50:14.232Z,7.87
2022-08-27T15:52:43.310Z,11.47
2022-08-27T15:55:21.142Z,11.03
2022-08-27T15:57:49.391Z,11.37
2022-08-27T16:00:19.063Z,10.63
2022-08-27T16:02:47.636Z,11.23
2022-08-27T16:05:18.014Z,9.70
2022-08-27T16:07:46.844Z,7.77
2022-08-27T16:10:15.958Z,10.70
2022-08-27T16:12:44.453Z,11.67
2022-08-27T16:15:13.568Z,15.43
2022-08-27T16:17:43.084Z,11.97
2022-08-27T16:20:13.126Z,10.80
2022-08-27T16:22:43.582Z,12.20
2022-08-27T16:25:16.541Z,11.53
2022-08-27T16:27:46.490Z,10.10
2022-08-27T16:30:15.293Z,16.77
2022-08-27T16:32:45.359Z,10.27
2022-08-27T16:35:15.403Z,7.70
2022-08-27T16:37:45.549Z,7.83
2022-08-27T16:40:14.905Z,8.00
2022-08-27T16:42:47.890Z,10.60
2022-08-27T16:45:17.617Z,12.30
2022-08-27T16:48:03.707Z,14.87
2022-08-27T16:50:34.472Z,6.57
2022-08-27T16:53:07.183Z,10.00
2022-08-27T16:55:37.523Z,5.03
2022-08-27T16:58:07.042Z,7.53
2022-08-27T17:00:37.711Z,5.70
2022-08-27T17:03:06.258Z,5.43
2022-08-27T17:05:35.111Z,13.37
2022-08-27T17:08:05.696Z,8.57
2022-08-27T17:10:42.030Z,7.40
2022-08-27T17:13:10.699Z,6.20
2022-08-27T17:15:39.595Z,9.40
2022-08-27T17:18:07.977Z,7.87
2022-08-27T17:20:37.363Z,6.07
2022-08-27T17:23:07.236Z,7.37
2022-08-27T17:25:35.293Z,8.43
2022-08-27T17:28:03.670Z,4.60
2022-08-27T17:30:31.906Z,4.30
2022-08-27T17:33:00.084Z,5.03
2022-08-27T17:35:28.391Z,4.30
2022-08-27T17:37:56.449Z,5.63
2022-08-27T17:40:26.256Z,10.83
2022-08-27T17:42:55.238Z,3.90
2022-08-27T17:45:23.276Z,4.17
2022-08-27T17:47:51.571Z,5.10
2022-08-27T17:50:19.746Z,3.40
2022-08-27T17:52:47.822Z,3.60
2022-08-27T17:55:15.962Z,5.10
2022-08-27T17:57:46.281Z,6.97
2022-08-27T18:00:15.338Z,5.00
2022-08-27T18:02:45.158Z,3.70
2022-08-27T18:05:14.816Z,3.73
2022-08-27T18:07:43.996Z,4.30
2022-08-27T18:10:15.530Z,4.50
2022-08-27T18:12:45.975Z,3.50
2022-08-27T18:15:19.574Z,3.30
2022-08-27T18:17:49.054Z,3.30
2022-08-27T18:20:22.377Z,3.30
2022-08-27T18:22:51.174Z,3.20
2022-08-27T18:25:22.818Z,6.07
2022-08-27T18:27:55.707Z,3.53
2022-08-27T18:30:24.866Z,6.23
2022-08-27T18:32:53.191Z,3.50
2022-08-27T18:35:24.322Z,4.10
2022-08-27T18:37:52.546Z,10.63
2022-08-27T18:40:23.345Z,3.80
2022-08-27T18:42:53.226Z,3.87
2022-08-27T18:45:28.463Z,4.67
2022-08-27T18:47:59.989Z,3.70
2022-08-27T18:50:28.621Z,3.67
2022-08-27T18:52:57.942Z,4.00
2022-08-27T18:55:28.488Z,4.30
2022-08-27T18:57:57.907Z,3.73
2022-08-27T19:00:25.954Z,4.00
2022-08-27T19:02:54.295Z,4.33
2022-08-27T19:05:26.832Z,4.30
2022-08-27T19:07:55.327Z,4.63
2022-08-27T19:10:23.909Z,5.03
2022-08-27T19:12:52.017Z,4.47
2022-08-27T19:15:21.914Z,5.00
2022-08-27T19:17:54.145Z,7.20
2022-08-27T19:20:22.399Z,6.10
2022-08-27T19:22:50.757Z,5.50
2022-08-27T19:25:19.446Z,5.10
2022-08-27T19:27:48.397Z,5.60
2022-08-27T19:30:17.678Z,5.10
2022-08-27T19:32:47.138Z,6.00
2022-08-27T19:35:15.419Z,5.40
2022-08-27T19:37:46.393Z,10.10
2022-08-27T19:40:22.671Z,5.83
2022-08-27T19:42:51.406Z,5.83
2022-08-27T19:45:23.704Z,7.67
2022-08-27T19:47:54.457Z,5.57
2022-08-27T19:50:23.797Z,6.43
2022-08-27T19:52:53.335Z,8.90
2022-08-27T19:55:21.539Z,7.13
2022-08-27T19:57:49.597Z,7.40
2022-08-27T20:00:21.221Z,8.73
2022-08-27T20:02:50.866Z,7.40
2022-08-27T20:05:22.677Z,9.03
2022-08-27T20:07:52.651Z,6.83
2022-08-27T20:10:22.845Z,7.90
2022-08-27T20:12:54.163Z,9.03
2022-08-27T20:15:23.553Z,8.93
2022-08-27T20:17:53.967Z,8.50
2022-08-27T20:20:25.428Z,8.13
2022-08-27T20:22:55.103Z,8.47
2022-08-27T20:25:23.773Z,10.57
2022-08-27T20:27:52.983Z,8.47
2022-08-27T20:30:24.007Z,9.43
2022-08-27T20:32:52.134Z,12.80
2022-08-27T20:35:20.831Z,12.93
2022-08-27T20:37:51.084Z,14.57
2022-08-27T20:40:24.421Z,13.53
2022-08-27T20:42:52.824Z,13.67
2022-08-27T20:45:21.503Z,14.40
2022-08-27T20:47:50.738Z,15.10
2022-08-27T20:50:20.533Z,16.80
2022-08-27T20:52:50.321Z,15.30
2022-08-27T20:55:18.945Z,16.80
2022-08-27T20:58:07.145Z,16.70
2022-08-27T21:00:37.139Z,16.10
2022-08-27T21:03:05.295Z,15.60
2022-08-27T21:05:35.446Z,15.37
2022-08-27T21:08:06.814Z,16.43
2022-08-27T21:10:35.982Z,19.03
2022-08-27T21:13:06.152Z,16.40
2022-08-27T21:15:36.190Z,18.60
2022-08-27T21:18:04.318Z,14.80
2022-08-27T21:20:33.113Z,18.37
2022-08-27T21:23:01.852Z,20.17
2022-08-27T21:25:31.457Z,21.63
2022-08-27T21:28:00.320Z,17.53
2022-08-27T21:30:28.675Z,17.83
2022-08-27T21:32:57.114Z,17.60
2022-08-27T21:35:26.629Z,19.83
2022-08-27T21:37:55.245Z,18.33
2022-08-27T21:40:25.056Z,21.40
2022-08-27T21:42:55.377Z,23.07
2022-08-27T21:45:23.619Z,18.67
2022-08-27T21:47:52.421Z,17.40
2022-08-27T21:50:20.993Z,22.57
2022-08-27T21:52:49.445Z,17.20
2022-08-27T21:55:18.138Z,18.13
2022-08-27T21:57:46.215Z,17.73
2022-08-27T22:00:38.152Z,18.73
2022-08-27T22:03:10.139Z,20.00
2022-08-27T22:05:39.849Z,21.87
2022-08-27T22:08:09.498Z,19.67
2022-08-27T22:10:37.949Z,19.90
2022-08-27T22:13:06.871Z,17.73
2022-08-27T22:15:36.406Z,23.57
2022-08-27T22:18:05.145Z,21.17
2022-08-27T22:20:34.126Z,19.00
2022-08-27T22:23:02.341Z,15.87
2022-08-27T22:25:30.569Z,17.13
2022-08-27T22:27:58.612Z,19.13
2022-08-27T22:30:26.744Z,21.23
2022-08-27T22:32:56.372Z,30.10
2022-08-27T22:35:24.705Z,15.70
2022-08-27T22:37:56.085Z,19.03
2022-08-27T22:40:25.971Z,15.70
2022-08-27T22:42:55.834Z,16.70
2022-08-27T22:45:24.992Z,22.87
2022-08-27T22:47:53.139Z,15.20
2022-08-27T22:50:23.259Z,18.33
2022-08-27T22:52:51.432Z,18.10
2022-08-27T22:55:22.162Z,16.33
2022-08-27T22:57:52.217Z,17.93
2022-08-27T23:00:24.619Z,15.40
2022-08-27T23:02:53.094Z,15.27
2022-08-27T23:05:23.433Z,16.03
2022-08-27T23:07:51.655Z,17.93
2022-08-27T23:10:22.789Z,18.40
2022-08-27T23:12:53.448Z,19.83
2022-08-27T23:15:24.661Z,14.93
2022-08-27T23:17:53.218Z,15.07
2022-08-27T23:20:23.662Z,16.27
2022-08-27T23:22:53.050Z,17.63
2022-08-27T23:25:41.304Z,20.80
2022-08-27T23:28:14.666Z,24.40
2022-08-27T23:30:44.467Z,15.80
2022-08-27T23:33:12.867Z,14.70
2022-08-27T23:35:47.545Z,16.40
2022-08-27T23:38:16.383Z,16.57
2022-08-27T23:40:45.344Z,20.57
2022-08-27T23:43:13.907Z,14.43
2022-08-27T23:45:43.464Z,19.63
2022-08-27T23:48:11.987Z,15.93
2022-08-27T23:50:40.724Z,19.30
2022-08-27T23:53:10.364Z,12.43
2022-08-27T23:55:40.305Z,13.67
2022-08-27T23:58:08.799Z,10.53
